Time;durP1;ratioP1;P1;durP2;ratioP2;P2;SDS_P1;SDS_P2;PMS_P1;PMS_P2;Temp;Humidity;BMP_temperature;BMP_pressure;BME280_temperature;BME280_humidity;BME280_pressure;Samples;Min_cycle;Max_cycle;Signal;HPM_P1;HPM_P2
2022/04/16 00:00:56;;;;;;;15.63;10.05;;;;;;;10.17;78.12;94466.53;1707479;82;21054;-51
2022/04/16 00:03:23;;;;;;;14.10;10.85;;;;;;;10.21;78.68;94465.78;1681838;84;21455;-50
2022/04/16 00:05:55;;;;;;;16.90;12.25;;;;;;;10.24;78.42;94460.75;1707931;82;20983;-50
2022/04/16 00:08:25;;;;;;;;;;;;;;;10.24;78.21;94464.88;1684558;84;21141;-51
2022/04/16 00:10:52;;;;;;;26.55;16.10;;;;;;;10.23;78.21;94459.22;1706831;84;20151;-50
2022/04/16 00:13:22;;;;;;;22.75;14.33;;;;;;;10.16;78.63;94456.12;1707770;84;21497;-51
2022/04/16 00:15:49;;;;;;;20.65;13.45;;;;;;;10.12;79.12;94463.75;1707754;82;21010;-51
2022/04/16 00:18:18;;;;;;;13.55;10.18;;;;;;;10.13;79.04;94454.91;1707418;84;21026;-51
2022/04/16 00:20:49;;;;;;;14.63;10.13;;;;;;;10.10;79.08;94445.58;1681701;84;21094;-51
2022/04/16 00:23:19;;;;;;;14.25;10.20;;;;;;;10.05;79.03;94445.39;1707948;84;20987;-52
2022/04/16 00:25:47;;;;;;;10.43;8.68;;;;;;;10.04;79.15;94449.35;1707368;84;21066;-50
2022/04/16 00:28:14;;;;;;;13.03;9.75;;;;;;;10.07;79.25;94445.70;1707540;84;21023;-51
2022/04/16 00:30:41;;;;;;;18.82;12.35;;;;;;;10.10;79.25;94440.67;1707596;84;21046;-52
2022/04/16 00:33:10;;;;;;;20.43;12.23;;;;;;;10.14;79.69;94435.83;1707893;84;21166;-52
2022/04/16 00:35:42;;;;;;;14.18;10.48;;;;;;;10.14;79.42;94438.58;1707498;82;21078;-52
2022/04/16 00:38:09;;;;;;;16.90;11.50;;;;;;;10.05;79.63;94445.39;1707951;84;21062;-51
2022/04/16 00:40:36;;;;;;;23.02;14.53;;;;;;;10.04;79.93;94441.89;1707384;84;21633;-49
2022/04/16 00:43:05;;;;;;;20.97;14.43;;;;;;;10.06;80.17;94435.92;1703147;84;20988;-51
2022/04/16 00:45:34;;;;;;;26.23;17.40;;;;;;;10.06;80.17;94435.92;1677678;84;21282;-51
2022/04/16 00:48:05;;;;;;;30.55;16.95;;;;;;;10.02;80.37;94432.55;1699223;84;21444;-51
2022/04/16 00:50:32;;;;;;;29.15;15.32;;;;;;;10.00;80.44;94433.58;1698997;84;21031;-51
2022/04/16 00:52:59;;;;;;;20.72;13.98;;;;;;;9.96;80.43;94439.20;1699095;84;21027;-51
2022/04/16 00:55:28;;;;;;;18.90;12.58;;;;;;;9.90;80.50;94433.37;1654669;84;21060;-51
2022/04/16 00:57:55;;;;;;;28.55;13.90;;;;;;;9.84;80.67;94440.67;1699078;84;21228;-50
2022/04/16 01:00:22;;;;;;;20.60;13.95;;;;;;;9.80;81.01;94433.17;1698874;84;21008;-50
2022/04/16 01:02:49;;;;;;;24.23;14.93;;;;;;;9.81;81.43;94442.32;1699188;84;21685;-52
2022/04/16 01:05:21;;;;;;;26.10;15.60;;;;;;;9.79;81.58;94438.52;1698986;84;21051;-50
2022/04/16 01:07:54;;;;;;;23.55;14.50;;;;;;;9.81;81.89;94438.83;1699254;84;21575;-51
2022/04/16 01:10:28;;;;;;;23.92;14.10;;;;;;;9.78;82.07;94438.35;1698895;83;20972;-52
2022/04/16 01:12:56;;;;;;;20.40;13.08;;;;;;;9.75;82.17;94436.48;1698686;84;20968;-52
2022/04/16 01:15:25;;;;;;;21.60;13.43;;;;;;;9.73;82.16;94440.28;1701081;83;21533;-49
2022/04/16 01:17:52;;;;;;;19.02;13.13;;;;;;;9.70;82.46;94432.36;1700395;84;21003;-50
2022/04/16 01:20:19;;;;;;;17.98;13.05;;;;;;;9.67;82.73;94433.85;1671149;86;21539;-51
2022/04/16 01:22:51;;;;;;;24.15;14.45;;;;;;;9.66;82.95;94424.08;1672523;84;21012;-52
2022/04/16 01:25:18;;;;;;;23.67;15.08;;;;;;;9.67;83.21;94431.10;1700717;84;21090;-51
2022/04/16 01:27:45;;;;;;;30.65;15.65;;;;;;;9.66;83.20;94428.20;1671036;86;21578;-50
2022/04/16 01:30:17;;;;;;;26.60;15.93;;;;;;;9.64;83.29;94430.63;1672437;84;21107;-51
2022/04/16 01:32:44;;;;;;;24.45;14.30;;;;;;;9.65;83.24;94431.54;1700730;84;21487;-52
2022/04/16 01:35:12;;;;;;;23.35;15.08;;;;;;;9.63;83.32;94430.47;1670942;84;20992;-51
2022/04/16 01:37:41;;;;;;;26.33;16.93;;;;;;;9.57;83.42;94425.38;1672682;84;21007;-52
2022/04/16 01:40:11;;;;;;;22.52;15.50;;;;;;;9.51;83.42;94423.06;1678578;83;21634;-50
2022/04/16 01:42:40;;;;;;;23.12;14.50;;;;;;;9.48;83.73;94418.47;1673112;85;21490;-51
2022/04/16 01:45:09;;;;;;;29.80;17.02;;;;;;;9.46;83.77;94417.53;1654452;85;21053;-51
2022/04/16 01:47:38;;;;;;;29.32;17.87;;;;;;;9.47;84.17;94414.20;1679795;85;21156;-51
2022/04/16 01:50:09;;;;;;;26.87;19.00;;;;;;;9.54;84.54;94419.42;1679428;83;21644;-51
2022/04/16 01:52:39;;;;;;;31.10;19.75;;;;;;;9.61;84.61;94423.29;1679462;84;21081;-52
2022/04/16 01:55:08;;;;;;;30.43;19.45;;;;;;;9.66;84.40;94428.95;1679481;85;21555;-51
2022/04/16 01:57:37;;;;;;;28.90;17.92;;;;;;;9.70;84.27;94423.34;1679713;85;20981;-51
2022/04/16 02:00:14;;;;;;;32.38;18.30;;;;;;;9.72;83.70;94414.03;1701418;84;21735;-51
2022/04/16 02:02:39;;;;;;;30.35;17.42;;;;;;;9.75;83.72;94408.42;1708775;84;21025;-51
2022/04/16 02:05:08;;;;;;;32.63;19.65;;;;;;;9.80;83.81;94412.57;1709154;84;21042;-50
2022/04/16 02:07:34;;;;;;;36.53;19.23;;;;;;;9.82;83.91;94407.39;1709857;84;21045;-53
2022/04/16 02:10:01;;;;;;;29.85;17.90;;;;;;;9.84;83.68;94412.57;1709592;84;20990;-51
2022/04/16 02:12:29;;;;;;;30.25;18.02;;;;;;;9.82;83.45;94410.89;1709408;84;21246;-52
2022/04/16 02:14:56;;;;;;;28.62;17.52;;;;;;;9.81;83.68;94408.61;1707828;82;21059;-50
2022/04/16 02:17:23;;;;;;;38.83;23.10;;;;;;;9.86;83.89;94399.77;1707600;84;20975;-50
2022/04/16 02:19:52;;;;;;;48.45;27.70;;;;;;;9.92;83.65;94406.20;1707728;84;22266;-54
2022/04/16 02:22:20;;;;;;;43.65;23.00;;;;;;;9.94;83.42;94405.92;1707722;84;20999;-51
2022/04/16 02:24:46;;;;;;;34.40;20.25;;;;;;;9.93;83.31;94402.23;1707925;84;21304;-50
2022/04/16 02:27:13;;;;;;;27.30;17.62;;;;;;;9.90;82.96;94401.77;1708185;84;20975;-51
2022/04/16 02:29:43;;;;;;;28.47;18.37;;;;;;;9.86;83.08;94397.80;1707630;84;20955;-51
2022/04/16 02:32:11;;;;;;;26.73;16.05;;;;;;;9.83;82.95;94391.81;1681744;84;21467;-52
2022/04/16 02:34:38;;;;;;;24.72;14.90;;;;;;;9.82;83.38;94394.41;1707730;84;21019;-50
2022/04/16 02:37:05;;;;;;;21.25;15.13;;;;;;;9.85;83.72;94385.28;1708041;82;21440;-51
2022/04/16 02:39:31;;;;;;;18.62;13.25;;;;;;;9.87;83.47;94385.59;1707708;84;20995;-51
2022/04/16 02:41:58;;;;;;;17.73;13.25;;;;;;;9.80;83.27;94386.47;1707669;84;21558;-51
2022/04/16 02:47:12;;;;;;;20.92;13.62;;;;;;;9.80;83.67;94385.09;1699515;84;21031;-50
2022/04/16 02:49:39;;;;;;;22.02;13.00;;;;;;;9.78;83.75;94388.28;1699165;84;21171;-50
2022/04/16 02:52:08;;;;;;;20.88;13.18;;;;;;;9.78;83.82;94391.66;1698999;84;21106;-51
2022/04/16 02:54:37;;;;;;;22.48;14.05;;;;;;;9.74;83.53;94391.00;1699181;84;21087;-52
2022/04/16 02:57:04;;;;;;;20.23;12.10;;;;;;;9.65;83.49;94393.71;1699168;84;20987;-51
2022/04/16 02:59:33;;;;;;;18.90;13.95;;;;;;;9.55;83.65;94400.35;1699468;84;20972;-51
2022/04/16 03:02:02;;;;;;;20.50;14.83;;;;;;;9.49;83.90;94390.58;1698921;84;21487;-51
2022/04/16 03:04:30;;;;;;;24.65;16.23;;;;;;;9.45;84.15;94391.91;1699198;84;21066;-51
2022/04/16 03:06:57;;;;;;;25.00;16.37;;;;;;;9.41;84.46;94388.54;1699266;84;21488;-51
2022/04/16 03:09:24;;;;;;;29.55;17.73;;;;;;;9.35;84.78;94389.72;1677074;84;21460;-51
2022/04/16 03:11:52;;;;;;;34.33;19.80;;;;;;;9.35;85.22;94390.31;1677347;84;21087;-51
2022/04/16 03:19:50;;;;;;;49.38;25.68;;;;;;;9.58;85.44;94378.88;1699216;84;21054;-52
2022/04/16 03:22:18;;;;;;;30.62;19.82;;;;;;;9.61;85.28;94378.73;1699371;84;21506;-51
2022/04/16 03:24:45;;;;;;;24.57;17.23;;;;;;;9.66;85.08;94377.39;1699289;84;21463;-52
2022/04/16 03:27:14;;;;;;;24.23;17.10;;;;;;;9.65;84.94;94370.37;1699536;84;21000;-51
2022/04/16 03:29:40;;;;;;;15.68;11.97;;;;;;;9.70;85.06;94378.02;1699256;84;21007;-51
2022/04/16 03:32:08;;;;;;;14.20;11.57;;;;;;;9.78;84.82;94380.67;1699138;84;21036;-51
2022/04/16 03:34:37;;;;;;;31.23;18.52;;;;;;;9.80;84.58;94380.98;1699458;84;21008;-52
2022/04/16 03:37:04;;;;;;;34.03;20.40;;;;;;;9.78;84.13;94386.16;1699340;84;20967;-51
2022/04/16 03:39:31;;;;;;;34.18;21.68;;;;;;;9.66;84.16;94389.13;1699345;84;21210;-52
2022/04/16 03:41:57;;;;;;;24.92;18.23;;;;;;;9.56;84.53;94388.16;1699176;84;20992;-52
2022/04/16 03:44:24;;;;;;;29.65;18.45;;;;;;;9.50;84.89;94385.84;1704107;84;20990;-51
2022/04/16 03:46:51;;;;;;;30.15;19.23;;;;;;;9.47;85.13;94389.48;1706496;84;21488;-51
2022/04/16 03:49:17;;;;;;;23.02;16.75;;;;;;;9.44;85.45;94382.15;1706362;84;21031;-51
2022/04/16 03:51:46;;;;;;;29.05;18.77;;;;;;;9.42;86.01;94388.70;1706412;84;21428;-52
2022/04/16 03:59:59;;;;;;;22.87;14.98;;;;;;;9.36;86.17;94391.84;1706363;84;21094;-51
2022/04/16 04:02:31;;;;;;;26.35;16.25;;;;;;;9.36;86.08;94387.72;1706397;84;21011;-53
2022/04/16 04:04:58;;;;;;;25.40;17.00;;;;;;;9.35;86.49;94386.19;1706414;84;21199;-51
2022/04/16 04:07:26;;;;;;;26.55;18.67;;;;;;;9.37;86.50;94392.00;1706140;84;20975;-52
2022/04/16 04:09:53;;;;;;;34.53;22.05;;;;;;;9.36;86.40;94397.33;1706305;84;21050;-52
2022/04/16 04:12:21;;;;;;;50.63;31.05;;;;;;;9.36;86.34;94401.45;1706327;84;21550;-52
2022/04/16 04:14:48;;;;;;;44.50;27.87;;;;;;;9.34;86.35;94398.39;1706154;84;21066;-51
2022/04/16 04:17:16;;;;;;;43.08;28.12;;;;;;;9.34;86.62;94402.50;1706367;84;21119;-51
2022/04/16 04:19:47;;;;;;;41.55;27.27;;;;;;;9.32;86.78;94399.45;1706119;84;20952;-51
2022/04/16 04:22:16;;;;;;;46.10;34.92;;;;;;;9.30;87.00;94396.38;1706327;84;20960;-52
2022/04/16 04:24:45;;;;;;;39.67;26.80;;;;;;;9.27;87.17;94395.91;1684390;84;21094;-52
2022/04/16 04:27:11;;;;;;;23.85;16.97;;;;;;;9.21;87.31;94390.22;1684937;84;20975;-50
2022/04/16 04:29:38;;;;;;;21.68;14.50;;;;;;;9.19;87.45;94383.05;1706228;84;21249;-51
2022/04/16 04:32:06;;;;;;;20.45;13.28;;;;;;;9.19;87.13;94390.50;1706166;84;21007;-53
2022/04/16 04:34:33;;;;;;;76.65;53.85;;;;;;;9.21;86.99;94385.35;1706699;84;21007;-52
2022/04/16 04:37:00;;;;;;;30.45;23.27;;;;;;;9.21;86.92;94386.10;1706375;84;21047;-53
2022/04/16 04:39:26;;;;;;;29.42;19.42;;;;;;;9.26;86.75;94383.40;1706317;84;21129;-52
2022/04/16 04:41:53;;;;;;;41.45;22.00;;;;;;;9.26;86.38;94397.88;1706270;84;21989;-51
2022/04/16 04:44:21;;;;;;;56.33;26.40;;;;;;;9.28;86.27;94394.70;1706113;83;20984;-51
2022/04/16 04:46:48;;;;;;;59.75;30.95;;;;;;;9.29;86.22;94399.72;1706359;84;21015;-52
2022/04/16 04:49:15;;;;;;;50.28;26.15;;;;;;;9.33;86.27;94400.38;1706358;84;21439;-51
2022/04/16 04:51:42;;;;;;;50.33;25.02;;;;;;;9.33;85.92;94402.34;1706249;84;20983;-51
2022/04/16 04:54:09;;;;;;;52.67;28.52;;;;;;;9.29;85.76;94409.95;1706282;84;21264;-51
2022/04/16 04:56:36;;;;;;;42.83;23.73;;;;;;;9.24;85.70;94400.92;1706017;84;21117;-51
2022/04/16 04:59:04;;;;;;;31.57;18.52;;;;;;;9.23;85.61;94400.77;1706380;84;21007;-52
2022/04/16 05:01:31;;;;;;;31.75;20.57;;;;;;;9.25;85.45;94403.83;1706458;84;21054;-51
2022/04/16 05:03:57;;;;;;;35.95;19.52;;;;;;;9.25;85.30;94403.20;1684251;84;21555;-51
2022/04/16 05:06:24;;;;;;;28.35;18.15;;;;;;;9.25;85.41;94397.72;1684155;84;21237;-51
2022/04/16 05:08:52;;;;;;;29.02;18.70;;;;;;;9.24;85.38;94409.91;1706104;84;21448;-53
2022/04/16 05:11:19;;;;;;;32.03;18.77;;;;;;;9.23;85.33;94416.61;1706336;84;21023;-52
2022/04/16 05:13:45;;;;;;;30.25;18.57;;;;;;;9.26;85.68;94427.31;1706191;84;20977;-51
2022/04/16 05:16:14;;;;;;;33.58;18.20;;;;;;;9.36;85.38;94419.30;1706283;84;21007;-52
2022/04/16 05:18:41;;;;;;;31.12;17.90;;;;;;;9.42;85.16;94414.78;1706181;84;21404;-52
2022/04/16 05:21:08;;;;;;;37.00;19.92;;;;;;;9.45;84.81;94415.25;1684034;84;21078;-52
2022/04/16 05:23:39;;;;;;;41.73;23.32;;;;;;;9.45;84.39;94416.63;1706273;84;20983;-51
2022/04/16 05:26:10;;;;;;;41.10;25.05;;;;;;;9.42;83.94;94412.03;1706293;84;20983;-53
2022/04/16 05:28:37;;;;;;;52.90;27.67;;;;;;;9.43;83.89;94412.19;1706397;84;21066;-54
2022/04/16 05:31:06;;;;;;;64.55;29.02;;;;;;;9.46;83.91;94413.41;1706234;84;21076;-51
2022/04/16 05:36:19;;;;;;;58.20;27.62;;;;;;;9.59;84.02;94421.61;1706254;84;21067;-53
2022/04/16 05:38:47;;;;;;;52.03;26.05;;;;;;;9.64;83.86;94412.78;1706226;84;21098;-51
2022/04/16 05:41:13;;;;;;;46.08;25.55;;;;;;;9.68;83.66;94417.53;1706292;84;21010;-52
2022/04/16 05:43:40;;;;;;;48.42;26.82;;;;;;;9.67;83.47;94414.63;1706306;83;21528;-54
2022/04/16 05:46:08;;;;;;;43.40;23.80;;;;;;;9.67;83.58;94417.37;1705995;84;21007;-52
2022/04/16 05:48:35;;;;;;;45.80;23.98;;;;;;;9.75;83.41;94417.25;1706285;84;20975;-53
2022/04/16 05:51:03;;;;;;;49.50;27.17;;;;;;;9.75;83.13;94411.76;1706271;84;20980;-51
2022/04/16 05:53:30;;;;;;;47.60;26.50;;;;;;;9.71;83.38;94423.49;1706213;84;21026;-52
2022/04/16 05:55:58;;;;;;;47.55;25.20;;;;;;;9.75;83.52;94421.37;1706312;84;21190;-52
2022/04/16 05:58:25;;;;;;;49.13;27.30;;;;;;;9.81;83.27;94411.35;1706126;84;21015;-52
2022/04/16 06:00:52;;;;;;;43.30;26.25;;;;;;;9.85;83.00;94414.13;1706431;84;21007;-53
2022/04/16 06:03:19;;;;;;;51.45;26.62;;;;;;;9.87;82.62;94415.81;1684042;84;21022;-51
2022/04/16 06:05:47;;;;;;;39.75;23.47;;;;;;;9.94;82.73;94418.28;1707820;82;21094;-53
2022/04/16 06:08:14;;;;;;;43.10;24.63;;;;;;;9.99;82.27;94418.31;1710483;82;21229;-52
2022/04/16 06:10:43;;;;;;;47.45;24.05;;;;;;;9.97;82.20;94419.38;1706377;82;21463;-53
2022/04/16 06:13:11;;;;;;;39.95;24.82;;;;;;;9.94;82.28;94414.16;1703071;83;21019;-52
2022/04/16 06:15:42;;;;;;;38.08;24.35;;;;;;;9.94;82.21;94420.25;1677915;85;21050;-52
2022/04/16 06:18:10;;;;;;;48.92;27.50;;;;;;;9.98;82.38;94418.16;1698668;83;21168;-53
2022/04/16 06:20:47;;;;;;;43.60;25.30;;;;;;;10.03;81.89;94421.13;1654280;84;21665;-53
2022/04/16 06:23:15;;;;;;;53.75;29.23;;;;;;;10.00;81.79;94420.59;1692688;84;21078;-54
2022/04/16 06:25:43;;;;;;;62.53;41.10;;;;;;;9.98;81.83;94420.91;1665961;84;21046;-53
2022/04/16 06:28:10;;;;;;;55.52;36.08;;;;;;;9.91;82.16;94430.77;1677571;84;21027;-52
2022/04/16 06:30:38;;;;;;;56.00;32.85;;;;;;;9.89;82.51;94426.34;1713088;82;22229;-53
2022/04/16 06:33:05;;;;;;;54.05;29.48;;;;;;;9.88;82.68;94428.93;1712541;82;22122;-53
2022/04/16 06:35:33;;;;;;;41.58;27.82;;;;;;;9.88;82.70;94424.81;1709785;82;20936;-54
2022/04/16 06:38:00;;;;;;;38.95;26.37;;;;;;;9.85;82.91;94425.72;1705822;84;21019;-51
2022/04/16 06:40:29;;;;;;;38.78;26.15;;;;;;;9.83;83.47;94430.89;1702831;83;21074;-53
2022/04/16 06:42:56;;;;;;;46.05;27.35;;;;;;;9.82;83.51;94429.37;1703406;84;21451;-51
2022/04/16 06:45:23;;;;;;;45.20;29.27;;;;;;;9.76;83.54;94431.17;1703394;83;21145;-51
2022/04/16 06:47:49;;;;;;;47.75;30.62;;;;;;;9.75;83.62;94437.27;1683843;84;21518;-52
2022/04/16 06:50:17;;;;;;;55.12;33.90;;;;;;;9.77;84.03;94442.31;1679479;84;21084;-51
2022/04/16 06:52:44;;;;;;;65.60;43.13;;;;;;;9.83;84.68;94445.38;1704073;84;22159;-51
2022/04/16 06:55:11;;;;;;;48.38;33.63;;;;;;;9.88;84.79;94446.80;1691796;83;21597;-54
2022/04/16 06:57:39;;;;;;;55.00;39.10;;;;;;;9.85;85.06;94451.81;1682287;84;21523;-52
2022/04/16 07:00:08;;;;;;;50.75;34.85;;;;;;;9.85;85.31;94458.68;1704483;83;21435;-51
2022/04/16 07:02:36;;;;;;;37.70;27.75;;;;;;;9.91;85.75;94454.13;1701256;83;21021;-52
2022/04/16 07:05:05;;;;;;;40.75;25.35;;;;;;;9.98;85.49;94464.25;1705682;83;21507;-53
2022/04/16 07:07:32;;;;;;;36.40;25.82;;;;;;;9.95;85.03;94460.28;1703014;84;20995;-53
2022/04/16 07:09:59;;;;;;;36.68;27.82;;;;;;;9.89;85.31;94462.84;1677173;83;21260;-53
2022/04/16 07:12:27;;;;;;;34.15;25.43;;;;;;;9.87;85.42;94462.52;1677886;84;21070;-52
2022/04/16 07:14:55;;;;;;;34.43;22.37;;;;;;;9.80;85.48;94464.77;1705694;83;20955;-51
2022/04/16 07:17:22;;;;;;;32.58;22.70;;;;;;;9.76;85.59;94461.39;1702169;83;21089;-55
2022/04/16 07:19:50;;;;;;;41.37;25.37;;;;;;;9.74;85.72;94461.05;1687023;83;21070;-54
2022/04/16 07:22:23;;;;;;;41.55;25.52;;;;;;;9.77;85.78;94467.04;1678357;84;21256;-53
2022/04/16 07:24:51;;;;;;;28.75;16.07;;;;;;;9.76;85.17;94459.39;1702516;83;21369;-55
2022/04/16 07:27:19;;;;;;;18.15;13.75;;;;;;;9.70;84.76;94461.19;1655026;85;21052;-53
2022/04/16 07:29:47;;;;;;;15.23;9.95;;;;;;;9.66;84.55;94469.40;1705840;83;21130;-52
2022/04/16 07:32:13;;;;;;;27.00;15.60;;;;;;;9.66;84.02;94469.40;1705965;84;21172;-53
2022/04/16 07:34:40;;;;;;;16.02;9.85;;;;;;;9.68;83.71;94464.22;1705426;82;21137;-54
2022/04/16 07:37:07;;;;;;;13.95;9.45;;;;;;;9.65;82.55;94475.48;1703617;82;21545;-55
2022/04/16 07:39:35;;;;;;;16.67;10.88;;;;;;;9.58;82.32;94473.63;1716227;82;21099;-54
2022/04/16 07:42:04;;;;;;;29.72;17.55;;;;;;;9.53;82.31;94476.92;1704325;82;20994;-53
2022/04/16 07:44:31;;;;;;;26.85;16.90;;;;;;;9.55;82.71;94479.98;1700595;82;21055;-53
2022/04/16 07:46:58;;;;;;;21.25;12.73;;;;;;;9.57;82.12;94473.44;1690618;83;22213;-54
2022/04/16 07:49:25;;;;;;;17.25;11.93;;;;;;;9.61;82.04;94474.09;1703395;83;21480;-53
2022/04/16 07:51:52;;;;;;;49.83;36.53;;;;;;;9.66;81.81;94484.50;1700238;83;20948;-54
2022/04/16 07:54:19;;;;;;;18.35;14.15;;;;;;;9.66;81.47;94481.75;1696452;83;21475;-53
2022/04/16 07:56:46;;;;;;;16.90;11.40;;;;;;;9.70;81.14;94489.25;1693263;83;21047;-55
2022/04/16 07:59:13;;;;;;;23.47;19.98;;;;;;;9.69;80.52;94489.09;1691576;83;21466;-56
2022/04/16 08:01:40;;;;;;;20.17;10.93;;;;;;;9.69;80.59;94490.47;1692451;83;20928;-51
2022/04/16 08:04:07;;;;;;;19.35;11.43;;;;;;;9.72;80.25;94483.48;1700110;83;21168;-54
2022/04/16 08:06:35;;;;;;;19.25;10.82;;;;;;;9.71;80.27;94479.80;1686570;83;20996;-52
2022/04/16 08:09:03;;;;;;;41.53;30.10;;;;;;;9.67;80.25;94480.54;1700792;83;21033;-54
2022/04/16 08:11:32;;;;;;;27.22;15.23;;;;;;;9.67;80.65;94488.19;1695381;83;21247;-52
2022/04/16 08:14:00;;;;;;;22.27;15.05;;;;;;;9.72;80.80;94482.70;1711035;83;21504;-53
2022/04/16 08:16:28;;;;;;;20.32;13.13;;;;;;;9.73;80.51;94486.98;1699222;83;21450;-54
2022/04/16 08:18:55;;;;;;;16.40;11.53;;;;;;;9.76;80.57;94484.73;1698884;83;21427;-53
2022/04/16 08:21:22;;;;;;;17.42;12.50;;;;;;;9.81;80.33;94492.39;1709653;83;21454;-52
2022/04/16 08:23:56;;;;;;;14.83;10.63;;;;;;;9.82;79.97;94486.44;1710306;83;21130;-53
2022/04/16 08:26:25;;;;;;;16.40;12.98;;;;;;;9.84;80.00;94488.75;1709681;83;21110;-54
2022/04/16 08:28:52;;;;;;;15.68;10.58;;;;;;;9.88;80.31;94488.00;1699627;83;21034;-55
2022/04/16 08:31:19;;;;;;;12.65;9.33;;;;;;;9.92;79.87;94491.37;1702642;83;20968;-54
2022/04/16 08:33:47;;;;;;;13.83;9.45;;;;;;;9.95;79.79;94491.88;1703315;83;20982;-53
2022/04/16 08:36:13;;;;;;;18.98;12.90;;;;;;;10.01;80.11;94496.95;1690978;83;21243;-55
2022/04/16 08:38:42;;;;;;;19.12;12.95;;;;;;;10.16;80.43;94493.23;1696191;83;21598;-52
2022/04/16 08:41:10;;;;;;;27.55;21.52;;;;;;;10.25;79.38;94499.39;1700378;83;20991;-54
2022/04/16 08:43:36;;;;;;;37.15;21.02;;;;;;;10.29;79.63;94495.89;1693998;83;21448;-55
2022/04/16 08:46:04;;;;;;;29.63;17.77;;;;;;;10.37;80.15;94490.30;1708938;83;20949;-52
2022/04/16 08:48:32;;;;;;;30.65;18.52;;;;;;;10.45;80.38;94495.66;1683938;83;21156;-52
2022/04/16 08:50:59;;;;;;;93.17;45.63;;;;;;;10.49;80.44;94497.69;1689608;83;21027;-51
2022/04/16 08:53:26;;;;;;;26.65;17.87;;;;;;;10.59;80.53;94500.62;1702686;83;20981;-52
2022/04/16 08:55:53;;;;;;;71.57;31.70;;;;;;;10.70;80.40;94496.23;1714084;82;21023;-53
2022/04/16 08:58:19;;;;;;;53.90;26.60;;;;;;;10.89;79.81;94498.59;1697111;83;21075;-53
2022/04/16 09:00:48;;;;;;;40.30;23.15;;;;;;;11.01;79.02;94495.56;1709114;83;21200;-54
2022/04/16 09:03:16;;;;;;;39.15;22.45;;;;;;;11.04;79.12;94503.68;1689024;83;20972;-52
2022/04/16 09:05:43;;;;;;;106.00;72.25;;;;;;;11.11;78.73;94497.87;1690385;83;21130;-53
2022/04/16 09:08:11;;;;;;;41.25;28.62;;;;;;;11.18;78.26;94494.81;1690383;83;21075;-53
2022/04/16 09:10:43;;;;;;;31.42;22.07;;;;;;;11.17;77.80;94502.92;1670409;84;21601;-54
2022/04/16 09:13:12;;;;;;;27.00;18.60;;;;;;;11.14;77.60;94505.84;1685976;84;21125;-52
2022/04/16 09:15:39;;;;;;;25.75;17.23;;;;;;;11.11;77.15;94507.51;1683894;84;21105;-52
2022/04/16 09:18:07;;;;;;;21.45;15.18;;;;;;;11.05;77.36;94504.43;1669158;85;21925;-53
2022/04/16 09:20:37;;;;;;;24.30;15.45;;;;;;;11.03;77.38;94505.50;1675697;84;21103;-53
2022/04/16 09:23:22;;;;;;;25.85;17.35;;;;;;;10.97;77.75;94502.58;1683438;84;21469;-52
2022/04/16 09:25:49;;;;;;;25.55;17.77;;;;;;;11.00;78.00;94505.03;1686904;83;21014;-53
2022/04/16 09:28:19;;;;;;;20.62;14.90;;;;;;;11.08;77.74;94504.89;1697081;84;21522;-52
2022/04/16 09:30:53;;;;;;;21.23;15.13;;;;;;;11.09;77.15;94493.44;1697781;84;21055;-54
2022/04/16 09:33:20;;;;;;;22.55;13.65;;;;;;;10.99;76.79;94500.75;1674446;84;21481;-52
2022/04/16 09:35:50;;;;;;;33.23;22.25;;;;;;;10.94;76.99;94502.71;1679680;84;21112;-53
2022/04/16 09:38:17;;;;;;;20.75;14.87;;;;;;;11.00;77.65;94502.29;1679992;84;21279;-54
2022/04/16 09:40:48;;;;;;;22.27;15.23;;;;;;;11.10;78.27;94499.09;1691536;84;21123;-51
2022/04/16 09:43:15;;;;;;;24.12;16.45;;;;;;;11.24;78.11;94505.39;1695727;84;21464;-52
2022/04/16 09:45:43;;;;;;;23.80;15.30;;;;;;;11.27;77.53;94503.10;1700924;83;21122;-53
2022/04/16 09:48:14;;;;;;;32.73;22.60;;;;;;;11.26;77.44;94502.95;1700999;84;21025;-51
2022/04/16 09:50:43;;;;;;;23.70;16.55;;;;;;;11.32;77.55;94505.87;1701266;83;21242;-53
2022/04/16 09:53:12;;;;;;;19.12;12.47;;;;;;;11.38;77.21;94499.27;1700953;84;21006;-51
2022/04/16 09:55:40;;;;;;;16.27;12.15;;;;;;;11.52;76.50;94494.55;1681348;84;21016;-53
2022/04/16 09:58:09;;;;;;;25.32;16.90;;;;;;;11.68;75.21;94493.52;1689725;84;21123;-52
2022/04/16 10:00:38;;;;;;;54.18;37.60;;;;;;;11.75;75.03;94497.33;1690688;84;21069;-60
2022/04/16 10:03:06;;;;;;;21.35;15.43;;;;;;;11.82;75.15;94495.63;1703262;82;21243;-53
2022/04/16 10:05:36;;;;;;;20.80;15.30;;;;;;;11.91;74.30;94492.25;1705087;84;21503;-53
2022/04/16 10:08:04;;;;;;;18.27;14.45;;;;;;;12.08;73.73;94489.31;1684232;82;21098;-52
2022/04/16 10:10:36;;;;;;;22.58;14.10;;;;;;;12.21;72.93;94494.65;1705721;83;21459;-54
2022/04/16 10:13:05;;;;;;;20.30;14.80;;;;;;;12.26;72.70;94492.67;1704511;84;21004;-53
2022/04/16 10:16:01;;;;;;;21.42;15.80;;;;;;;12.32;73.30;94491.58;1667670;84;21136;-53
2022/04/16 10:18:28;;;;;;;19.17;14.73;;;;;;;12.46;72.80;94486.77;1702848;83;21074;-54
2022/04/16 10:21:00;;;;;;;21.55;15.72;;;;;;;12.53;71.44;94493.34;1703615;84;21450;-53
2022/04/16 10:23:40;;;;;;;22.65;15.85;;;;;;;12.46;71.83;94488.14;1704752;84;21046;-54
2022/04/16 10:26:10;;;;;;;23.10;16.48;;;;;;;12.51;73.03;94488.14;1704929;84;21450;-53
2022/04/16 10:28:53;;;;;;;19.25;15.08;;;;;;;12.60;73.68;94486.88;1704152;82;21090;-51
2022/04/16 10:31:28;;;;;;;24.20;15.63;;;;;;;12.74;73.69;94486.82;1704032;84;21505;-54
2022/04/16 10:34:11;;;;;;;28.00;19.00;;;;;;;12.91;73.49;94485.20;1703154;84;21006;-51
2022/04/16 10:36:45;;;;;;;30.68;18.32;;;;;;;13.04;73.18;94481.64;1680840;84;21109;-55
2022/04/16 10:39:16;;;;;;;24.60;16.40;;;;;;;13.05;72.77;94487.31;1701970;82;21002;-53
2022/04/16 10:41:58;;;;;;;35.78;23.57;;;;;;;13.05;72.67;94487.31;1702949;84;21261;-52
2022/04/16 10:44:26;;;;;;;25.35;18.55;;;;;;;13.00;72.46;94492.08;1703191;84;20994;-54
2022/04/16 10:46:54;;;;;;;37.98;25.70;;;;;;;12.90;72.25;94500.99;1699602;83;21468;-50
2022/04/16 10:49:24;;;;;;;32.35;23.18;;;;;;;12.76;72.45;94509.20;1696826;84;21526;-54
2022/04/16 10:51:52;;;;;;;76.75;41.88;;;;;;;12.61;70.70;94502.21;1681259;84;21505;-52
2022/04/16 10:54:31;;;;;;;22.82;14.93;;;;;;;12.35;69.03;94501.69;1695535;83;21096;-54
2022/04/16 10:56:57;;;;;;;49.15;32.50;;;;;;;12.03;67.93;94516.14;1696201;84;20992;-54
2022/04/16 10:59:44;;;;;;;23.92;19.45;;;;;;;11.72;67.61;94512.03;1684694;84;21021;-53
2022/04/16 11:02:28;;;;;;;19.60;15.75;;;;;;;11.46;68.17;94519.80;1695739;83;21084;-53
2022/04/16 11:05:05;;;;;;;16.07;13.68;;;;;;;11.21;68.17;94517.92;1692635;83;21039;-52
2022/04/16 11:07:39;;;;;;;13.50;11.12;;;;;;;11.00;69.28;94513.30;1693627;84;21024;-53
2022/04/16 11:10:09;;;;;;;13.00;10.30;;;;;;;10.92;69.66;94516.94;1707892;84;20975;-53
2022/04/16 11:12:39;;;;;;;18.00;15.80;;;;;;;10.87;70.30;94512.05;1678159;84;21116;-53
2022/04/16 11:15:09;;;;;;;10.58;7.30;;;;;;;10.87;70.92;94516.17;1708380;81;20973;-53
2022/04/16 11:17:36;;;;;;;9.70;8.30;;;;;;;10.96;70.83;94516.81;1703614;82;21009;-52
2022/04/16 11:20:06;;;;;;;10.15;8.85;;;;;;;11.02;70.87;94521.23;1669070;84;21251;-55
2022/04/16 11:22:34;;;;;;;11.85;8.35;;;;;;;11.08;71.03;94524.94;1693649;84;20987;-54
2022/04/16 11:25:07;;;;;;;8.55;6.83;;;;;;;11.09;70.53;94525.09;1707796;84;21065;-52
2022/04/16 11:35:59;;;;;;;42.93;21.90;;;;;;;10.82;72.82;94537.38;1706167;84;20982;-52
2022/04/16 11:38:31;;;;;;;20.43;14.28;;;;;;;10.68;73.30;94539.94;1707475;84;20985;-52
2022/04/16 11:41:00;;;;;;;18.73;11.38;;;;;;;10.55;73.98;94540.63;1706681;82;21582;-51
2022/04/16 11:43:29;;;;;;;14.20;9.48;;;;;;;10.48;74.27;94537.38;1716727;82;21005;-53
2022/04/16 11:45:56;;;;;;;15.83;11.48;;;;;;;10.38;74.57;94544.07;1705700;82;21150;-52
2022/04/16 11:48:22;;;;;;;20.92;13.32;;;;;;;10.30;75.02;94542.79;1706221;82;20973;-50
2022/04/16 11:50:50;;;;;;;22.22;15.10;;;;;;;10.24;75.68;94539.88;1710703;82;21111;-52
2022/04/16 11:53:17;;;;;;;17.77;12.28;;;;;;;10.21;76.05;94540.78;1671316;84;20982;-51